Aviation Digital Data Service (ADDS)

Output produced by METARs form (0428 UTC 26 June 2019)
found at http://www.aviationweather.gov/metar/data/
 
Forecast for: FZAA (KINSHASA/N'DJILI, CD)
Text: TAF FZAA 252300Z 2600/2706 27006KT 3000 BR BKN016
Forecast period: 0000 to 1000 UTC 26 June 2019
Forecast type: FROM: standard forecast or significant change
Winds: from the W (270 degrees) at 7 MPH (6 knots; 3.1 m/s)
Visibility: 1.86 miles (2.99 km)
Ceiling: 1600 feet AGL
Clouds: broken clouds at 1600 feet AGL
Weather: BR  (mist)
Text: PROB30 2606/2608 0800 FGDZ OVC012
Forecast period: 0600 to 0800 UTC 26 June 2019
Forecast type: PROBABLE: 30 percent likelihood of the following during this time
Visibility: 0.50 miles (0.80 km)
Ceiling: 1200 feet AGL
Clouds: overcast cloud deck at 1200 feet AGL
Weather: DZ FG  (moderate drizzle, fog)
Text: BECMG 2610/2612 6000 NSW NSC
Forecast period: 1000 UTC 26 June 2019 to 0600 UTC 27 June 2019
Forecast type: BECOMING: Conditions expected to become as follows by 1200 UTC 26 June 2019
Winds: from the W (270 degrees) at 7 MPH (6 knots; 3.1 m/s)
Visibility: 4 miles (6 km)
Ceiling: unknown
Clouds: missing
Weather: NSW  (no significant weather)